Time;durP1;ratioP1;P1;durP2;ratioP2;P2;SDS_P1;SDS_P2;PMS_P1;PMS_P2;Temp;Humidity;BMP_temperature;BMP_pressure;BME280_temperature;BME280_humidity;BME280_pressure;Samples;Min_cycle;Max_cycle;Signal;HPM_P1;HPM_P2
2022/11/09 00:01:45;;;;;;;9.25;5.80;;;;;;;12.08;73.79;100378.81;4384892;32;33290;-87
2022/11/09 00:04:13;;;;;;;5.80;4.07;;;;;;;12.08;74.11;100373.53;4369115;32;33254;-87
2022/11/09 00:06:42;;;;;;;6.37;3.22;;;;;;;11.93;74.43;100378.50;4394070;32;33427;-87
2022/11/09 00:09:10;;;;;;;6.57;4.55;;;;;;;11.75;75.17;100376.56;4380908;32;32863;-87
2022/11/09 00:11:39;;;;;;;4.55;4.18;;;;;;;12.04;73.88;100380.72;4366631;32;33259;-87
2022/11/09 00:14:13;;;;;;;13.65;6.28;;;;;;;12.02;74.23;100378.16;4380466;32;33390;-87
2022/11/09 00:16:41;;;;;;;23.58;4.70;;;;;;;11.72;75.19;100374.88;4380088;32;33215;-87
2022/11/09 00:19:09;;;;;;;12.40;4.05;;;;;;;12.08;73.60;100369.09;4361820;32;33058;-87
2022/11/09 00:21:43;;;;;;;2.90;2.70;;;;;;;11.56;75.87;100367.62;4391974;32;32851;-87
2022/11/09 00:24:11;;;;;;;5.20;2.90;;;;;;;11.76;75.23;100365.06;4393931;32;33715;-87
2022/11/09 00:26:42;;;;;;;1.98;1.87;;;;;;;11.70;75.31;100367.94;4381975;32;34011;-88
2022/11/09 00:29:38;;;;;;;3.20;2.95;;;;;;;11.57;75.92;100371.97;4389883;32;33785;-87
2022/11/09 00:32:51;;;;;;;5.22;3.10;;;;;;;11.58;76.28;100365.75;4387376;32;34217;-88
2022/11/09 00:39:42;;;;;;;4.50;4.20;;;;;;;11.88;74.88;100376.97;4350497;32;34852;-88
2022/11/09 00:43:19;;;;;;;6.25;5.78;;;;;;;11.95;74.57;100366.06;4349645;32;33999;-87
2022/11/09 00:47:11;;;;;;;2.72;2.53;;;;;;;12.07;73.86;100362.09;4349083;32;32731;-88
2022/11/09 00:51:17;;;;;;;;;;;;;;;;;;;;;
2022/11/09 01:06:36;;;;;;;;;;;;;;;;;;;;;
2022/11/09 01:10:50;;;;;;;3.33;3.12;;;;;;;11.88;74.82;100364.59;4268460;33;33345;-87
2022/11/09 01:13:30;;;;;;;5.45;2.87;;;;;;;11.74;75.29;100353.69;4322103;33;33911;-86
2022/11/09 01:15:58;;;;;;;3.83;3.45;;;;;;;11.88;74.54;100356.66;4319505;33;32587;-86
2022/11/09 01:18:26;;;;;;;6.22;4.35;;;;;;;11.62;75.62;100347.06;4317979;33;33341;-86
2022/11/09 01:20:57;;;;;;;3.53;3.33;;;;;;;11.53;76.41;100350.94;4318254;33;33460;-86
2022/11/09 01:23:25;;;;;;;4.57;4.28;;;;;;;11.75;75.07;100350.09;4337189;33;33560;-87
2022/11/09 01:25:58;;;;;;;3.67;3.37;;;;;;;11.80;74.71;100348.13;4355719;32;33133;-88
2022/11/09 01:28:27;;;;;;;5.05;2.83;;;;;;;12.07;73.87;100348.84;4349071;32;33398;-89
2022/11/09 01:31:01;;;;;;;5.45;4.82;;;;;;;12.03;74.27;100341.94;4360954;32;34216;-88
2022/11/09 01:33:32;;;;;;;3.55;3.25;;;;;;;11.67;74.68;100347.75;4372817;32;34397;-86
2022/11/09 01:36:04;;;;;;;3.70;3.40;;;;;;;11.79;74.97;100341.13;4348612;32;34414;-86
2022/11/09 01:38:32;;;;;;;4.35;2.60;;;;;;;11.65;75.71;100343.47;4373601;32;33215;-86
2022/11/09 01:41:01;;;;;;;3.42;3.22;;;;;;;11.48;76.33;100342.31;4373448;32;34705;-86
2022/11/09 01:43:30;;;;;;;2.10;2.00;;;;;;;11.66;75.33;100339.88;4373381;32;33690;-86
2022/11/09 01:46:08;;;;;;;10.75;4.20;;;;;;;11.44;76.40;100330.16;4372819;32;34913;-86
2022/11/09 01:48:44;;;;;;;2.53;2.35;;;;;;;11.53;76.27;100332.41;4372895;32;33751;-86
2022/11/09 01:51:17;;;;;;;7.18;3.10;;;;;;;11.51;76.13;100321.06;4372593;32;33514;-86
2022/11/09 01:53:48;;;;;;;2.55;2.45;;;;;;;11.56;75.87;100320.00;4360237;32;34554;-87
2022/11/09 01:56:17;;;;;;;5.50;2.97;;;;;;;11.36;76.84;100324.31;4372633;32;33868;-86
2022/11/09 01:58:52;;;;;;;3.28;3.08;;;;;;;11.40;76.46;100320.62;4348176;32;33449;-86
2022/11/09 02:01:21;;;;;;;2.67;2.58;;;;;;;11.03;77.85;100326.44;4372300;32;33869;-86
2022/11/09 02:03:58;;;;;;;3.45;3.15;;;;;;;11.17;77.44;100326.78;4377493;32;32809;-86
2022/11/09 02:06:29;;;;;;;3.00;2.80;;;;;;;11.21;77.49;100322.25;4380495;32;33704;-86
2022/11/09 02:09:12;;;;;;;4.60;4.18;;;;;;;11.27;76.99;100316.72;4379628;32;33855;-86
2022/11/09 02:11:40;;;;;;;2.47;1.80;;;;;;;11.59;75.80;100318.13;4382783;32;34069;-87
2022/11/09 02:14:08;;;;;;;1.92;1.65;;;;;;;11.64;75.51;100317.94;4376350;32;33845;-88
2022/11/09 02:16:37;;;;;;;2.20;2.10;;;;;;;11.21;76.77;100314.31;4381210;32;33834;-88
2022/11/09 02:19:05;;;;;;;2.60;1.80;;;;;;;10.99;77.45;100320.41;4381801;32;32517;-88
2022/11/09 02:21:34;;;;;;;8.80;3.53;;;;;;;10.95;77.41;100321.44;4392970;32;32693;-87
2022/11/09 02:24:02;;;;;;;4.32;1.85;;;;;;;11.31;76.46;100312.19;4368559;32;33393;-88
2022/11/09 02:26:35;;;;;;;3.42;2.22;;;;;;;11.26;76.36;100315.00;4394314;32;32648;-88
2022/11/09 02:29:07;;;;;;;3.60;1.50;;;;;;;11.09;76.97;100314.78;4383971;32;33315;-88
2022/11/09 02:31:38;;;;;;;3.08;2.87;;;;;;;11.18;76.51;100306.50;4396073;32;33967;-88
2022/11/09 02:34:15;;;;;;;2.60;2.42;;;;;;;11.23;76.13;100308.03;4369375;32;33028;-88
2022/11/09 02:36:43;;;;;;;4.35;3.50;;;;;;;11.45;75.16;100310.72;4369373;32;33579;-86
2022/11/09 02:39:18;;;;;;;3.15;2.37;;;;;;;11.10;76.63;100308.56;4387845;32;33038;-86
2022/11/09 02:41:56;;;;;;;3.40;3.10;;;;;;;11.27;75.45;100306.16;4388059;32;32896;-86
2022/11/09 02:44:28;;;;;;;1.98;1.90;;;;;;;10.90;77.21;100309.31;4381511;32;33967;-86
2022/11/09 02:46:56;;;;;;;1.25;1.23;;;;;;;11.13;75.98;100314.59;4388085;32;32625;-86
2022/11/09 02:49:25;;;;;;;2.17;2.08;;;;;;;10.73;77.81;100302.03;4382003;32;33717;-87
2022/11/09 02:51:53;;;;;;;2.30;1.45;;;;;;;10.98;76.39;100304.59;4369347;32;34077;-88
2022/11/09 02:54:21;;;;;;;1.73;1.67;;;;;;;11.35;75.36;100301.44;4376028;32;33981;-87
2022/11/09 02:56:49;;;;;;;4.18;3.87;;;;;;;11.53;74.16;100282.16;4363410;32;33236;-87
2022/11/09 02:59:17;;;;;;;2.05;1.95;;;;;;;11.11;75.46;100284.75;4366868;32;33291;-87
2022/11/09 03:01:44;;;;;;;3.25;2.97;;;;;;;11.05;76.04;100294.66;4375022;32;33937;-87
2022/11/09 03:04:12;;;;;;;3.03;2.83;;;;;;;10.62;77.45;100301.53;4381389;32;33033;-87
2022/11/09 03:06:41;;;;;;;2.37;2.25;;;;;;;10.95;76.33;100302.06;4379789;32;34913;-87
2022/11/09 03:09:10;;;;;;;5.07;4.25;;;;;;;10.99;76.19;100306.31;4380669;32;32497;-87
2022/11/09 03:11:40;;;;;;;3.00;2.75;;;;;;;11.48;73.91;100307.94;4374766;32;33801;-87
2022/11/09 03:14:10;;;;;;;2.20;2.00;;;;;;;11.09;75.26;100313.00;4376139;32;35007;-87
2022/11/09 03:16:39;;;;;;;1.80;1.67;;;;;;;10.88;76.30;100314.66;4393489;32;33344;-87
2022/11/09 03:19:07;;;;;;;1.87;1.77;;;;;;;11.13;75.45;100308.47;4387573;32;34144;-88
2022/11/09 03:21:36;;;;;;;2.30;2.10;;;;;;;11.02;75.96;100311.50;4382327;32;35426;-88
2022/11/09 03:24:05;;;;;;;1.00;1.00;;;;;;;10.98;75.45;100310.75;4375748;32;33583;-88
2022/11/09 03:26:34;;;;;;;2.55;2.45;;;;;;;10.81;76.37;100323.72;4375705;32;32723;-87
2022/11/09 03:29:05;;;;;;;5.70;1.60;;;;;;;10.62;77.64;100322.66;4388668;32;33317;-88
2022/11/09 03:31:38;;;;;;;2.97;2.75;;;;;;;11.19;75.08;100314.34;4371394;32;32742;-86
2022/11/09 03:34:07;;;;;;;6.57;3.25;;;;;;;11.05;75.72;100310.50;4381052;32;32991;-86
2022/11/09 03:36:38;;;;;;;1.75;1.65;;;;;;;11.17;75.40;100315.34;4368288;32;33595;-87
2022/11/09 03:39:24;;;;;;;1.02;1.02;;;;;;;11.26;75.20;100313.22;4378598;32;32692;-87
2022/11/09 03:42:05;;;;;;;2.65;2.45;;;;;;;11.48;74.21;100315.88;4365748;32;33153;-88
2022/11/09 03:44:53;;;;;;;8.88;3.50;;;;;;;11.30;74.73;100313.97;4384778;32;33558;-87
2022/11/09 03:47:25;;;;;;;7.22;3.17;;;;;;;10.87;76.00;100318.22;4387270;32;33864;-87
2022/11/09 03:49:54;;;;;;;3.80;2.65;;;;;;;10.90;76.09;100315.44;4390853;32;32837;-87
2022/11/09 03:52:22;;;;;;;3.40;2.28;;;;;;;10.99;76.30;100306.31;4393309;32;33158;-86
2022/11/09 03:54:50;;;;;;;2.90;2.67;;;;;;;11.07;76.15;100306.06;4381193;32;33453;-86
2022/11/09 03:57:18;;;;;;;2.17;2.08;;;;;;;11.19;75.48;100303.78;4380696;32;33917;-86
2022/11/09 03:59:49;;;;;;;1.08;1.08;;;;;;;11.41;74.36;100303.81;4388240;32;32459;-86
2022/11/09 04:02:16;;;;;;;4.25;2.72;;;;;;;11.38;73.93;100298.66;4374345;32;33030;-86
2022/11/09 04:04:44;;;;;;;1.62;1.52;;;;;;;11.27;74.14;100300.88;4391703;32;35023;-86
2022/11/09 04:07:13;;;;;;;2.90;2.70;;;;;;;11.47;74.01;100308.00;4365938;32;35051;-86
2022/11/09 04:09:42;;;;;;;1.80;1.70;;;;;;;11.00;75.22;100305.41;4379054;32;32892;-86
2022/11/09 04:12:10;;;;;;;2.70;2.55;;;;;;;11.02;75.42;100304.44;4378318;32;33372;-86
2022/11/09 04:14:37;;;;;;;1.10;1.08;;;;;;;10.70;76.90;100305.63;4391595;32;33461;-86
2022/11/09 04:17:05;;;;;;;2.12;1.25;;;;;;;10.96;75.99;100302.00;4366596;32;32795;-86
2022/11/09 04:19:33;;;;;;;1.33;1.23;;;;;;;11.02;75.63;100303.59;4394221;32;32952;-85
2022/11/09 04:22:05;;;;;;;1.17;1.17;;;;;;;11.03;75.67;100303.50;4376118;32;33930;-85
2022/11/09 04:24:33;;;;;;;1.30;1.20;;;;;;;11.25;74.74;100303.56;4379264;32;32922;-85
2022/11/09 04:27:02;;;;;;;3.08;2.58;;;;;;;11.21;75.08;100294.03;4354498;32;32641;-85
2022/11/09 04:29:30;;;;;;;3.20;2.97;;;;;;;11.19;75.12;100298.50;4394207;32;34124;-86
2022/11/09 04:31:59;;;;;;;2.28;1.75;;;;;;;11.13;75.15;100304.03;4380790;32;33639;-85
2022/11/09 04:34:27;;;;;;;3.87;3.58;;;;;;;11.01;75.69;100293.91;4376483;32;33230;-86
2022/11/09 04:36:57;;;;;;;3.85;3.55;;;;;;;11.06;75.38;100301.66;4380113;32;34629;-86
2022/11/09 04:39:27;;;;;;;2.10;1.65;;;;;;;11.26;74.84;100297.34;4388717;32;33603;-86
2022/11/09 04:41:55;;;;;;;1.00;1.00;;;;;;;11.16;74.22;100300.41;4370811;32;33755;-86
2022/11/09 04:44:54;;;;;;;2.92;2.53;;;;;;;11.31;74.59;100297.19;4380011;32;34114;-88
2022/11/09 04:48:01;;;;;;;1.60;1.33;;;;;;;11.46;74.04;100288.63;4338325;32;33782;-88
2022/11/09 04:50:31;;;;;;;5.60;3.67;;;;;;;11.43;73.64;100301.97;4349804;32;32653;-88
2022/11/09 04:53:10;;;;;;;2.53;1.80;;;;;;;10.92;75.75;100303.06;4350555;32;33013;-88
2022/11/09 04:55:39;;;;;;;2.08;1.98;;;;;;;11.17;75.10;100296.84;4336649;33;34518;-87
2022/11/09 04:58:08;;;;;;;5.40;3.65;;;;;;;11.56;73.05;100296.22;4326218;33;32450;-87
2022/11/09 05:00:39;;;;;;;1.62;1.52;;;;;;;11.14;74.84;100294.31;4343542;33;34415;-87
2022/11/09 05:03:09;;;;;;;2.70;1.87;;;;;;;11.21;74.54;100295.81;4343070;33;33352;-86
2022/11/09 05:05:41;;;;;;;5.45;4.05;;;;;;;11.11;74.91;100286.50;4329117;33;33618;-88
2022/11/09 05:08:16;;;;;;;4.05;2.85;;;;;;;11.48;73.76;100286.78;4336276;33;34465;-87
2022/11/09 05:10:44;;;;;;;1.75;1.65;;;;;;;11.50;73.49;100290.25;4348510;32;33463;-88
2022/11/09 05:13:13;;;;;;;3.15;2.78;;;;;;;11.48;73.14;100294.72;4331227;33;33649;-88
2022/11/09 05:15:42;;;;;;;5.00;4.57;;;;;;;11.48;73.54;100294.72;4337274;33;34047;-88
2022/11/09 05:18:14;;;;;;;1.20;1.20;;;;;;;11.31;73.73;100285.75;4323186;33;32894;-88
2022/11/09 05:20:44;;;;;;;2.62;2.47;;;;;;;11.40;73.69;100280.09;4330692;33;32087;-87
2022/11/09 05:26:00;;;;;;;4.05;3.75;;;;;;;11.25;74.39;100276.25;4379517;32;34218;-85
2022/11/09 05:28:29;;;;;;;5.20;3.00;;;;;;;10.99;75.10;100280.75;4387814;32;33926;-86
2022/11/09 05:31:01;;;;;;;2.70;2.50;;;;;;;10.88;75.68;100282.97;4382146;32;33195;-86
2022/11/09 05:33:32;;;;;;;1.42;1.35;;;;;;;10.47;77.09;100292.38;4394437;32;32868;-86
2022/11/09 05:36:03;;;;;;;4.57;3.55;;;;;;;10.96;75.98;100298.50;4369590;32;34747;-86
2022/11/09 05:38:32;;;;;;;1.62;1.60;;;;;;;10.98;75.25;100294.91;4381606;32;33943;-86
2022/11/09 05:41:03;;;;;;;1.65;1.55;;;;;;;10.87;76.22;100294.44;4369070;32;33662;-86
2022/11/09 05:43:33;;;;;;;2.47;2.28;;;;;;;10.98;76.02;100291.41;4383471;32;34019;-87
2022/11/09 05:46:06;;;;;;;4.28;2.47;;;;;;;10.88;75.79;100303.22;4387180;32;34664;-87
2022/11/09 05:48:35;;;;;;;3.42;2.50;;;;;;;11.07;74.81;100293.69;4381161;32;33875;-86
2022/11/09 05:51:05;;;;;;;1.80;1.70;;;;;;;11.28;74.35;100294.66;4368882;32;33605;-86
2022/11/09 05:53:33;;;;;;;5.32;2.72;;;;;;;11.05;75.00;100305.22;4375892;32;33477;-89
2022/11/09 05:56:06;;;;;;;2.47;2.33;;;;;;;10.76;75.87;100305.37;4390803;32;33054;-88
2022/11/09 05:58:40;;;;;;;5.60;3.55;;;;;;;10.98;75.52;100305.47;4390645;32;33108;-87
2022/11/09 06:01:14;;;;;;;2.70;2.03;;;;;;;10.88;76.01;100304.09;4370691;32;33769;-89
2022/11/09 06:03:57;;;;;;;2.65;2.33;;;;;;;10.94;75.50;100303.84;4350935;32;32600;-88
2022/11/09 06:06:42;;;;;;;2.55;2.00;;;;;;;10.94;75.82;100311.78;4341858;32;33495;-88
2022/11/09 06:09:14;;;;;;;2.40;1.35;;;;;;;11.10;75.15;100304.13;4352587;32;33143;-87
2022/11/09 06:18:38;;;;;;;1.48;1.37;;;;;;;10.62;76.51;100304.16;4349437;32;34138;-87
2022/11/09 06:21:09;;;;;;;3.40;1.30;;;;;;;10.50;77.60;100314.25;4341704;32;34118;-86
2022/11/09 06:23:38;;;;;;;3.08;2.87;;;;;;;10.81;76.31;100309.66;4341057;32;33695;-86
2022/11/09 06:26:09;;;;;;;5.25;4.32;;;;;;;10.58;76.98;100326.31;4341918;32;34222;-93
2022/11/09 06:37:11;;;;;;;4.70;3.50;;;;;;;10.70;76.21;100328.53;4318392;33;33607;-90
2022/11/09 06:39:44;;;;;;;3.22;2.30;;;;;;;10.35;77.50;100329.75;4338639;32;33266;-90
2022/11/09 06:42:14;;;;;;;;;;;;;;;10.14;77.81;100318.97;4331017;33;33448;-90
2022/11/09 06:44:44;;;;;;;1.20;1.20;;;;;;;10.25;77.20;100323.91;4341817;32;33146;-90
2022/11/09 06:47:13;;;;;;;4.28;2.95;;;;;;;10.15;78.61;100322.47;4330950;33;33100;-90
2022/11/09 06:49:41;;;;;;;2.60;2.28;;;;;;;10.09;77.87;100331.47;4343233;33;32919;-89
2022/11/09 06:52:13;;;;;;;13.52;3.05;;;;;;;10.44;76.79;100319.75;4324636;33;33595;-89
2022/11/09 06:54:50;;;;;;;6.68;3.90;;;;;;;10.57;76.18;100324.59;4331058;33;32959;-90
2022/11/09 06:57:23;;;;;;;1.87;1.77;;;;;;;10.46;76.22;100331.13;4343953;32;32964;-89
2022/11/09 06:59:59;;;;;;;1.37;1.27;;;;;;;10.49;75.72;100333.66;4333636;33;33217;-90
2022/11/09 07:02:38;;;;;;;1.33;1.27;;;;;;;10.59;75.55;100328.06;4330770;33;34652;-89
2022/11/09 07:05:24;;;;;;;5.37;3.92;;;;;;;10.50;76.16;100324.81;4336344;33;33985;-89
2022/11/09 07:08:42;;;;;;;0.95;0.95;;;;;;;10.52;76.25;100328.25;4320866;33;33722;-90
2022/11/09 07:11:15;;;;;;;7.32;3.92;;;;;;;10.88;74.73;100314.66;4323017;33;34808;-91
2022/11/09 07:14:01;;;;;;;;;;;;;;;;;;;;;
2022/11/09 07:17:06;;;;;;;2.17;1.98;;;;;;;10.19;77.13;100332.03;4343825;32;33001;-92
2022/11/09 07:19:38;;;;;;;1.25;1.17;;;;;;;10.40;76.77;100333.97;4307298;33;32828;-91
2022/11/09 07:22:11;;;;;;;7.37;3.67;;;;;;;10.29;76.50;100336.09;4344914;32;33229;-91
2022/11/09 07:24:41;;;;;;;1.90;1.58;;;;;;;10.21;76.39;100332.84;4332189;33;33016;-91
2022/11/09 07:27:15;;;;;;;1.10;1.10;;;;;;;10.34;76.49;100334.16;4330095;33;32924;-91
2022/11/09 07:29:48;;;;;;;1.55;1.30;;;;;;;10.35;76.25;100333.28;4317264;33;32623;-91
2022/11/09 07:32:18;;;;;;;2.83;2.62;;;;;;;10.51;75.76;100326.53;4323240;33;33614;-90
2022/11/09 07:34:46;;;;;;;1.25;1.25;;;;;;;10.46;76.10;100339.03;4326999;33;34483;-92
2022/11/09 07:37:26;;;;;;;2.80;2.60;;;;;;;10.25;77.32;100335.37;4312852;33;32895;-92
2022/11/09 07:40:18;;;;;;;;;;;;;;;9.89;77.76;100342.69;4349297;32;33513;-92
2022/11/09 07:43:26;;;;;;;3.70;2.58;;;;;;;9.94;78.03;100331.97;4356029;32;33159;-92
2022/11/09 07:45:57;;;;;;;1.95;1.83;;;;;;;9.96;77.68;100333.62;4351816;32;33079;-92
2022/11/09 07:48:27;;;;;;;2.15;1.15;;;;;;;10.15;77.79;100341.81;4359520;32;32714;-92
2022/11/09 07:51:01;;;;;;;1.52;1.42;;;;;;;10.18;76.89;100333.81;4359900;32;32888;-92
2022/11/09 07:53:36;;;;;;;2.58;2.37;;;;;;;10.28;77.15;100344.94;4352875;32;33091;-92
2022/11/09 07:56:05;;;;;;;4.78;3.22;;;;;;;10.51;76.31;100329.19;4352373;32;34080;-92
2022/11/09 07:58:36;;;;;;;2.27;2.13;;;;;;;10.59;75.94;100330.69;4358688;32;33363;-91
2022/11/09 08:01:09;;;;;;;1.83;1.73;;;;;;;10.05;77.83;100331.63;4359094;32;32232;-92
2022/11/09 08:03:40;;;;;;;1.15;1.10;;;;;;;10.20;77.37;100337.22;4370848;32;33020;-91
2022/11/09 08:06:09;;;;;;;2.28;2.10;;;;;;;10.24;77.77;100340.69;4355852;32;33495;-92
2022/11/09 08:08:45;;;;;;;3.05;2.85;;;;;;;10.48;76.70;100331.91;4368721;32;32910;-91
2022/11/09 08:11:14;;;;;;;1.42;1.35;;;;;;;10.22;77.84;100331.94;4369792;32;33412;-91
2022/11/09 08:13:43;;;;;;;1.40;1.30;;;;;;;10.60;76.01;100322.72;4353655;32;33186;-92
2022/11/09 08:16:13;;;;;;;2.83;2.62;;;;;;;10.08;78.45;100323.62;4369045;32;33759;-92
2022/11/09 08:19:09;;;;;;;2.42;2.28;;;;;;;10.25;78.06;100324.81;4370692;32;32949;-92
2022/11/09 08:21:47;;;;;;;3.70;2.53;;;;;;;10.69;76.74;100314.47;4360796;32;32668;-91
2022/11/09 08:24:17;;;;;;;3.47;3.03;;;;;;;10.43;77.28;100318.00;4356926;32;32888;-93
2022/11/09 08:26:48;;;;;;;5.00;2.70;;;;;;;10.23;78.27;100320.44;4366274;32;33312;-89
2022/11/09 08:29:25;;;;;;;1.10;0.90;;;;;;;9.87;79.68;100327.78;4341116;32;33145;-93
2022/11/09 08:32:13;;;;;;;5.90;2.08;;;;;;;10.16;78.65;100324.19;4311799;33;34435;-93
2022/11/09 08:34:47;;;;;;;3.35;3.15;;;;;;;10.29;78.19;100324.69;4320710;33;32963;-94
2022/11/09 08:37:34;;;;;;;5.12;3.33;;;;;;;10.38;78.13;100319.09;4369441;32;33988;-93
2022/11/09 08:40:29;;;;;;;1.60;1.48;;;;;;;10.67;77.10;100315.41;4333049;33;34419;-94
2022/11/09 08:43:15;;;;;;;4.85;1.73;;;;;;;10.55;77.96;100318.50;4383215;32;32426;-93
2022/11/09 08:45:58;;;;;;;3.87;2.60;;;;;;;10.98;76.15;100316.03;4352125;32;34618;-92
2022/11/09 08:48:43;;;;;;;1.87;1.80;;;;;;;10.75;76.69;100313.38;4298996;33;32762;-93
2022/11/09 08:51:34;;;;;;;1.98;1.87;;;;;;;10.88;76.36;100319.94;4317859;33;32515;-92
2022/11/09 08:54:16;;;;;;;2.97;2.78;;;;;;;10.87;76.75;100318.22;4334522;33;32809;-92
2022/11/09 08:57:10;;;;;;;3.25;3.05;;;;;;;10.90;76.25;100318.09;4353847;32;33880;-92
2022/11/09 08:59:50;;;;;;;3.95;2.78;;;;;;;11.07;76.34;100309.56;4366842;32;33445;-94
2022/11/09 09:02:46;;;;;;;2.33;2.12;;;;;;;10.98;76.29;100315.19;4342954;32;34442;-93
2022/11/09 09:05:28;;;;;;;2.25;2.05;;;;;;;11.06;76.54;100322.81;4351833;32;33836;-92
2022/11/09 09:08:24;;;;;;;2.25;2.10;;;;;;;10.61;78.18;100323.56;4339427;32;32795;-91
2022/11/09 09:11:05;;;;;;;1.75;1.65;;;;;;;10.81;78.02;100318.44;4365334;32;34680;-93
2022/11/09 09:13:47;;;;;;;2.03;1.83;;;;;;;10.81;77.87;100313.16;4368079;32;32975;-93
2022/11/09 09:16:30;;;;;;;6.85;3.62;;;;;;;10.81;77.59;100318.44;4345164;32;33917;-93
2022/11/09 09:19:13;;;;;;;2.85;2.65;;;;;;;10.84;77.63;100320.97;4312314;33;33328;-93
2022/11/09 09:21:57;;;;;;;2.03;1.92;;;;;;;10.74;78.13;100316.94;4353276;32;33726;-92
2022/11/09 09:24:52;;;;;;;2.75;2.50;;;;;;;11.18;76.66;100319.72;4358992;32;34738;-92
2022/11/09 09:27:36;;;;;;;3.67;2.75;;;;;;;10.98;77.08;100309.91;4341961;32;32353;-91
2022/11/09 09:30:20;;;;;;;3.17;2.75;;;;;;;11.01;77.18;100308.00;4349252;32;32694;-92
2022/11/09 09:33:02;;;;;;;4.82;4.37;;;;;;;10.52;78.96;100312.41;4326172;32;33476;-92
2022/11/09 09:35:50;;;;;;;5.97;4.65;;;;;;;10.85;78.37;100309.47;4359664;32;33639;-92
2022/11/09 09:38:48;;;;;;;3.70;2.22;;;;;;;11.02;77.57;100315.00;4375911;32;33835;-92
2022/11/09 09:41:33;;;;;;;17.80;4.15;;;;;;;10.81;78.75;100307.00;4360892;32;32730;-92
2022/11/09 09:44:44;;;;;;;4.87;2.85;;;;;;;11.11;77.11;100311.16;4353132;32;35393;-92
2022/11/09 09:47:51;;;;;;;5.90;3.45;;;;;;;11.31;77.07;100307.75;4390729;32;33152;-92
2022/11/09 09:50:50;;;;;;;1.83;1.73;;;;;;;10.89;78.39;100311.09;4335430;33;33796;-91
2022/11/09 09:53:43;;;;;;;15.77;4.22;;;;;;;11.31;77.18;100302.47;4356578;32;32460;-93
2022/11/09 09:56:30;;;;;;;8.43;4.90;;;;;;;11.68;75.37;100301.00;4339675;32;31639;-94
2022/11/09 09:59:28;;;;;;;7.28;3.58;;;;;;;10.52;79.49;100301.84;4356319;32;33908;-93
2022/11/09 10:02:29;;;;;;;3.05;2.85;;;;;;;10.97;78.84;100287.91;4358811;32;35900;-93
2022/11/09 10:05:14;;;;;;;4.05;1.20;;;;;;;11.33;76.87;100290.03;4347002;32;33625;-93
2022/11/09 10:08:08;;;;;;;3.78;3.40;;;;;;;10.89;78.38;100295.25;4379464;32;33638;-93
2022/11/09 10:11:33;;;;;;;2.97;2.78;;;;;;;11.24;77.60;100285.09;4340465;32;34260;-92
2022/11/09 10:14:24;;;;;;;2.72;2.53;;;;;;;11.19;77.29;100280.00;4333132;33;32552;-94
2022/11/09 10:17:13;;;;;;;5.00;3.00;;;;;;;11.03;78.91;100278.88;4366795;32;33210;-94
2022/11/09 10:20:07;;;;;;;7.45;5.75;;;;;;;11.27;77.55;100277.06;4345222;33;33108;-94
2022/11/09 10:23:24;;;;;;;1.95;1.83;;;;;;;10.98;78.45;100275.53;4394263;32;33067;-91
2022/11/09 10:26:20;;;;;;;3.53;2.05;;;;;;;11.07;78.23;100280.47;4385031;32;32691;-94
2022/11/09 10:29:31;;;;;;;21.73;4.30;;;;;;;11.09;78.69;100277.78;4348540;33;34514;-95
2022/11/09 10:32:24;;;;;;;3.45;2.42;;;;;;;11.27;78.12;100279.72;4350656;32;33025;-93
2022/11/09 10:35:12;;;;;;;10.57;3.58;;;;;;;11.51;76.71;100275.25;4369113;32;33032;-94
2022/11/09 10:38:12;;;;;;;5.90;5.40;;;;;;;11.40;77.21;100283.59;4342123;33;32383;-94
2022/11/09 10:41:47;;;;;;;6.22;3.60;;;;;;;11.25;78.16;100278.88;4332634;33;34181;-96
2022/11/09 10:44:47;;;;;;;14.95;6.95;;;;;;;11.38;77.95;100264.28;4339082;32;33294;-94
2022/11/09 10:47:46;;;;;;;10.45;5.18;;;;;;;11.63;76.57;100261.53;4350981;32;33016;-94
2022/11/09 10:50:37;;;;;;;4.45;4.15;;;;;;;11.43;76.97;100259.66;4336898;33;32271;-94
2022/11/09 10:53:36;;;;;;;2.17;2.05;;;;;;;11.33;77.51;100260.97;4358340;32;32704;-96
2022/11/09 11:01:12;;;;;;;5.43;4.97;;;;;;;11.20;78.24;100259.72;4363700;32;34567;-95
2022/11/09 11:03:56;;;;;;;4.03;3.47;;;;;;;11.83;76.01;100244.88;4379785;32;32534;-93
2022/11/09 11:07:14;;;;;;;17.58;5.95;;;;;;;11.35;78.03;100253.00;4362116;32;33349;-93
2022/11/09 11:10:15;;;;;;;8.85;4.03;;;;;;;11.61;77.01;100241.34;4362405;32;33680;-92
2022/11/09 11:12:58;;;;;;;3.05;2.72;;;;;;;11.98;75.17;100238.06;4359540;32;32897;-92
2022/11/09 11:15:47;;;;;;;5.75;3.70;;;;;;;11.48;77.16;100236.53;4364164;32;31872;-93
2022/11/09 11:18:46;;;;;;;6.70;3.72;;;;;;;11.61;77.00;100238.69;4384601;32;32343;-91
2022/11/09 11:21:46;;;;;;;4.18;3.15;;;;;;;11.64;76.83;100230.66;4336684;32;33130;-95
2022/11/09 11:25:04;;;;;;;4.15;3.75;;;;;;;11.93;75.84;100230.31;4337692;32;32966;-94
2022/11/09 11:27:53;;;;;;;13.70;5.53;;;;;;;11.68;76.46;100235.75;4356403;32;32620;-93
2022/11/09 11:30:54;;;;;;;3.70;3.50;;;;;;;11.60;76.70;100240.50;4346382;33;33000;-92
2022/11/09 11:33:37;;;;;;;3.62;3.42;;;;;;;11.60;77.54;100237.84;4371329;32;34463;-92
2022/11/09 11:36:44;;;;;;;7.10;3.15;;;;;;;11.92;75.89;100225.97;4314749;33;33436;-92
2022/11/09 11:39:53;;;;;;;11.95;3.92;;;;;;;12.16;75.02;100233.78;4295986;33;32816;-93
2022/11/09 11:42:58;;;;;;;3.97;3.67;;;;;;;12.15;74.91;100232.88;4331231;33;34498;-92
2022/11/09 11:46:19;;;;;;;2.72;2.50;;;;;;;12.19;74.70;100238.91;4358325;32;33705;-92
2022/11/09 11:49:25;;;;;;;14.98;3.37;;;;;;;12.17;74.77;100238.13;4322018;33;32873;-92
2022/11/09 11:52:15;;;;;;;9.10;4.93;;;;;;;11.92;76.07;100238.34;4362599;32;33291;-90
2022/11/09 11:55:25;;;;;;;5.65;5.20;;;;;;;11.84;76.17;100240.44;4360206;32;33254;-89
2022/11/09 11:58:27;;;;;;;2.80;2.70;;;;;;;11.80;76.37;100232.56;4356212;32;33429;-90
2022/11/09 12:02:14;;;;;;;6.95;5.90;;;;;;;11.80;76.37;100227.28;4364539;32;32371;-90
2022/11/09 12:05:17;;;;;;;12.20;4.72;;;;;;;11.96;76.06;100231.97;4330586;32;32716;-90
2022/11/09 12:08:48;;;;;;;11.75;7.43;;;;;;;11.91;76.12;100224.22;4358465;32;34840;-90
2022/11/09 12:15:15;;;;;;;3.62;2.62;;;;;;;12.17;75.24;100230.19;4362963;32;33178;-90
2022/11/09 12:18:51;;;;;;;5.93;5.30;;;;;;;12.27;74.84;100216.47;4349705;32;32180;-90
2022/11/09 12:22:02;;;;;;;6.00;5.03;;;;;;;12.05;75.36;100221.84;4358426;32;33102;-90
2022/11/09 12:24:58;;;;;;;5.50;5.10;;;;;;;12.25;74.76;100206.91;4349370;32;33305;-89
2022/11/09 12:28:12;;;;;;;5.82;5.20;;;;;;;12.38;74.22;100204.53;4368517;32;33348;-90
2022/11/09 12:31:15;;;;;;;8.55;6.07;;;;;;;12.21;75.25;100215.91;4377743;32;33943;-89
2022/11/09 12:34:26;;;;;;;4.18;3.12;;;;;;;12.19;75.16;100218.59;4363644;32;33304;-89
2022/11/09 12:37:18;;;;;;;6.28;5.15;;;;;;;12.13;75.41;100215.38;4367794;32;33307;-90
2022/11/09 12:43:21;;;;;;;6.32;5.72;;;;;;;12.29;73.69;100214.63;4359582;32;32873;-89
2022/11/09 12:46:10;;;;;;;7.82;6.15;;;;;;;12.72;72.80;100212.72;4371601;32;33208;-89
2022/11/09 12:49:03;;;;;;;6.40;5.03;;;;;;;12.86;72.10;100208.53;4361973;32;34891;-89
2022/11/09 12:51:50;;;;;;;7.20;6.47;;;;;;;12.73;72.72;100214.44;4361474;32;34916;-89
2022/11/09 12:54:45;;;;;;;;;;;;;;;12.86;72.32;100205.88;4368888;32;32709;-89
2022/11/09 12:57:34;;;;;;;6.57;5.93;;;;;;;12.76;72.93;100205.47;4378758;32;33121;-89
2022/11/09 13:00:33;;;;;;;5.18;4.78;;;;;;;12.80;72.51;100204.38;4383808;32;34052;-89
2022/11/09 13:03:23;;;;;;;7.20;2.95;;;;;;;13.10;71.52;100203.88;4382602;32;33242;-89
2022/11/09 13:06:14;;;;;;;4.25;3.78;;;;;;;12.88;71.80;100204.03;4367778;32;33592;-88
2022/11/09 13:16:04;;;;;;;;;;;;;;;12.20;74.64;100198.28;4377284;32;32385;-89
2022/11/09 13:18:56;;;;;;;9.68;6.87;;;;;;;12.02;75.24;100194.66;4382327;32;32477;-89
2022/11/09 13:21:36;;;;;;;3.97;3.58;;;;;;;12.23;74.60;100187.56;4375915;32;34193;-88
2022/11/09 13:24:34;;;;;;;5.62;4.35;;;;;;;12.10;75.10;100192.53;4365216;32;32751;-89
2022/11/09 13:27:46;;;;;;;5.37;4.72;;;;;;;12.47;73.87;100190.91;4378731;32;33202;-89
2022/11/09 13:30:40;;;;;;;7.62;6.15;;;;;;;12.37;73.89;100187.81;4363541;32;32172;-90
2022/11/09 13:33:33;;;;;;;18.95;6.53;;;;;;;12.20;74.78;100192.97;4363783;32;32458;-90